Time;durP1;ratioP1;P1;durP2;ratioP2;P2;SDS_P1;SDS_P2;PMS_P1;PMS_P2;Temp;Humidity;BMP_temperature;BMP_pressure;BME280_temperature;BME280_humidity;BME280_pressure;Samples;Min_cycle;Max_cycle;Signal;HPM_P1;HPM_P2
2023/07/25 00:01:54;;;;;;;3.00;2.25;;;17.70;99.90;;;;;;5017016;28;20145;-72
2023/07/25 00:04:20;;;;;;;5.47;2.85;;;17.60;99.90;;;;;;5016661;28;20026;-72
2023/07/25 00:06:45;;;;;;;3.15;2.38;;;17.60;99.90;;;;;;5016708;28;20032;-69
2023/07/25 00:09:11;;;;;;;4.57;2.70;;;17.60;99.90;;;;;;5017339;28;20030;-69
2023/07/25 00:11:36;;;;;;;6.90;2.60;;;17.50;99.90;;;;;;5016381;28;20030;-69
2023/07/25 00:14:02;;;;;;;5.13;2.92;;;17.50;99.90;;;;;;5016638;28;20022;-69
2023/07/25 00:16:27;;;;;;;8.52;5.28;;;17.50;99.90;;;;;;5016570;28;20034;-69
2023/07/25 00:18:53;;;;;;;5.68;3.10;;;17.40;99.90;;;;;;5016864;28;20029;-69
2023/07/25 00:21:19;;;;;;;6.28;3.35;;;17.50;99.90;;;;;;5016497;28;20021;-69
2023/07/25 00:23:44;;;;;;;6.97;3.22;;;17.40;99.90;;;;;;5016274;28;20022;-69
2023/07/25 00:26:10;;;;;;;5.70;3.70;;;17.50;99.90;;;;;;5016433;28;20029;-69
2023/07/25 00:28:35;;;;;;;5.90;3.63;;;17.50;99.90;;;;;;5016586;28;20071;-69
2023/07/25 00:31:07;;;;;;;5.82;3.75;;;17.50;99.90;;;;;;5017257;28;20057;-69
2023/07/25 00:33:33;;;;;;;6.18;3.40;;;17.40;99.90;;;;;;5016777;28;20022;-69
2023/07/25 00:35:59;;;;;;;4.55;3.10;;;17.50;99.90;;;;;;5016078;28;20116;-69
2023/07/25 00:38:24;;;;;;;7.40;3.05;;;17.40;99.90;;;;;;5016334;28;20032;-69
2023/07/25 00:40:50;;;;;;;4.40;3.28;;;17.50;99.90;;;;;;5016175;28;20018;-69
2023/07/25 00:43:15;;;;;;;6.97;3.30;;;17.60;99.90;;;;;;5016786;28;20129;-69
2023/07/25 00:45:41;;;;;;;4.43;3.55;;;17.70;99.90;;;;;;5016119;28;20065;-70
2023/07/25 00:48:06;;;;;;;5.80;3.45;;;17.70;99.90;;;;;;5016098;28;20026;-66
2023/07/25 00:50:32;;;;;;;6.10;3.22;;;17.50;99.90;;;;;;5016444;28;20026;-66
2023/07/25 00:52:59;;;;;;;5.88;3.20;;;17.50;99.90;;;;;;5016657;28;20022;-67
2023/07/25 00:55:26;;;;;;;4.32;3.35;;;17.50;99.90;;;;;;5016696;28;20030;-67
2023/07/25 00:57:52;;;;;;;5.57;3.55;;;17.50;99.90;;;;;;5016130;28;20030;-67
2023/07/25 01:00:17;;;;;;;5.80;3.25;;;17.60;99.90;;;;;;5016110;28;20033;-66
2023/07/25 01:02:43;;;;;;;5.55;4.00;;;17.60;99.90;;;;;;5018887;28;20037;-67
2023/07/25 01:05:09;;;;;;;4.85;3.42;;;17.70;99.90;;;;;;5019714;28;20060;-66
2023/07/25 01:07:38;;;;;;;10.75;3.85;;;17.70;99.90;;;;;;5019621;28;20029;-67
2023/07/25 01:10:04;;;;;;;4.95;3.38;;;17.70;99.90;;;;;;5019378;28;20040;-66
2023/07/25 01:12:30;;;;;;;5.78;3.40;;;17.80;99.90;;;;;;5020110;28;20022;-67
2023/07/25 01:14:55;;;;;;;6.40;3.38;;;17.80;99.90;;;;;;5019509;28;20048;-67
2023/07/25 01:17:24;;;;;;;6.88;3.58;;;17.80;99.90;;;;;;5019841;28;20165;-67
2023/07/25 01:19:50;;;;;;;4.95;3.45;;;17.80;99.90;;;;;;5020031;28;20048;-67
2023/07/25 01:22:16;;;;;;;4.95;3.33;;;17.70;99.90;;;;;;5020081;28;20053;-67
2023/07/25 01:24:44;;;;;;;4.55;3.50;;;17.50;99.90;;;;;;5019560;28;20057;-66
2023/07/25 01:27:10;;;;;;;9.52;3.95;;;17.40;99.90;;;;;;5020181;28;20022;-67
2023/07/25 01:29:36;;;;;;;5.78;3.90;;;17.40;99.90;;;;;;5019738;28;20026;-67
2023/07/25 01:32:01;;;;;;;7.03;3.80;;;17.50;99.90;;;;;;5019086;28;20053;-66
2023/07/25 01:34:27;;;;;;;7.88;3.67;;;17.40;99.90;;;;;;5018993;28;20026;-66
2023/07/25 01:36:53;;;;;;;6.50;3.95;;;17.30;99.90;;;;;;5019958;28;20080;-66
2023/07/25 01:39:18;;;;;;;8.15;3.45;;;17.10;99.90;;;;;;5019208;28;20030;-66
2023/07/25 01:41:44;;;;;;;7.70;3.92;;;17.00;99.90;;;;;;5019362;28;20030;-66
2023/07/25 01:44:10;;;;;;;7.00;3.88;;;16.90;99.90;;;;;;5019946;28;20057;-67
2023/07/25 01:46:35;;;;;;;9.95;4.45;;;16.90;99.90;;;;;;5019655;28;20018;-67
2023/07/25 01:49:01;;;;;;;5.95;3.58;;;16.90;99.90;;;;;;5019671;28;20140;-67
2023/07/25 01:51:27;;;;;;;6.63;4.00;;;16.90;99.90;;;;;;5018991;28;20022;-66
2023/07/25 01:54:12;;;;;;;5.93;3.92;;;17.00;99.90;;;;;;5019192;28;20030;-67
2023/07/25 01:56:37;;;;;;;5.95;4.10;;;17.10;99.90;;;;;;5018900;28;20022;-66
2023/07/25 01:59:03;;;;;;;7.35;4.78;;;17.00;99.90;;;;;;5019326;28;20156;-66
2023/07/25 02:01:29;;;;;;;8.23;4.72;;;17.00;99.90;;;;;;5018984;28;20026;-67
2023/07/25 02:03:54;;;;;;;7.13;4.90;;;17.00;99.90;;;;;;5018882;28;20029;-66
2023/07/25 02:06:20;;;;;;;9.35;5.28;;;17.10;99.90;;;;;;5018918;28;20018;-67
2023/07/25 02:08:45;;;;;;;7.78;5.13;;;17.20;99.90;;;;;;5019478;28;20085;-66
2023/07/25 02:11:11;;;;;;;7.35;5.63;;;17.10;99.90;;;;;;5018719;28;20026;-66
2023/07/25 02:13:36;;;;;;;10.77;5.05;;;17.10;99.90;;;;;;5017727;28;20124;-66
2023/07/25 02:16:02;;;;;;;7.65;5.30;;;17.00;99.90;;;;;;5018981;28;20045;-67
2023/07/25 02:18:28;;;;;;;10.25;5.07;;;16.80;99.90;;;;;;5018612;28;20022;-67
2023/07/25 02:20:53;;;;;;;7.15;5.15;;;16.90;99.90;;;;;;5018442;28;20030;-66
2023/07/25 02:23:19;;;;;;;8.07;5.18;;;16.90;99.90;;;;;;5019089;28;20028;-67
2023/07/25 02:25:46;;;;;;;10.90;6.28;;;17.00;99.90;;;;;;5018523;28;20029;-66
2023/07/25 02:28:11;;;;;;;12.27;5.65;;;17.10;99.90;;;;;;5018475;28;20045;-66
2023/07/25 02:30:37;;;;;;;17.38;5.90;;;17.10;99.90;;;;;;5018618;28;20045;-66
2023/07/25 02:33:02;;;;;;;8.48;5.65;;;17.10;99.90;;;;;;5018604;28;20030;-67
2023/07/25 02:35:28;;;;;;;7.50;5.15;;;17.10;99.90;;;;;;5018306;28;20064;-66
2023/07/25 02:37:53;;;;;;;9.77;5.90;;;17.10;99.90;;;;;;5018074;28;20057;-66
2023/07/25 02:40:19;;;;;;;13.30;5.72;;;17.10;99.90;;;;;;5018439;28;20069;-66
2023/07/25 02:42:44;;;;;;;7.80;5.38;;;17.00;99.90;;;;;;5018810;28;20045;-66
2023/07/25 02:45:10;;;;;;;12.30;5.75;;;16.80;99.90;;;;;;5017780;28;20053;-67
2023/07/25 02:47:36;;;;;;;8.05;5.32;;;16.70;99.90;;;;;;5017727;28;20030;-67
2023/07/25 02:50:01;;;;;;;9.57;5.47;;;16.70;99.90;;;;;;5017650;28;20022;-66
2023/07/25 02:52:27;;;;;;;9.48;5.55;;;16.90;99.90;;;;;;5017911;28;20014;-66
2023/07/25 02:54:52;;;;;;;12.45;6.40;;;17.00;99.90;;;;;;5018265;28;20022;-67
2023/07/25 02:57:18;;;;;;;7.65;4.82;;;16.90;99.90;;;;;;5018138;28;20025;-67
2023/07/25 02:59:43;;;;;;;7.68;5.15;;;16.80;99.90;;;;;;5017880;28;20025;-67
2023/07/25 03:02:10;;;;;;;10.82;5.45;;;16.70;99.90;;;;;;5017816;28;20030;-66
2023/07/25 03:04:36;;;;;;;7.07;5.30;;;16.70;99.90;;;;;;5017618;28;20028;-67
2023/07/25 03:07:02;;;;;;;9.82;5.75;;;16.60;99.90;;;;;;5018233;28;20025;-67
2023/07/25 03:09:27;;;;;;;10.73;5.15;;;16.60;99.90;;;;;;5017872;28;20022;-66
2023/07/25 03:11:53;;;;;;;9.38;5.32;;;16.60;99.90;;;;;;5017957;28;20030;-67
2023/07/25 03:14:20;;;;;;;9.85;4.90;;;16.70;99.90;;;;;;5017578;28;20069;-67
2023/07/25 03:16:45;;;;;;;8.05;5.70;;;16.70;99.90;;;;;;5017163;28;20030;-67
2023/07/25 03:19:11;;;;;;;9.15;5.10;;;16.80;99.90;;;;;;5017415;28;20041;-67
2023/07/25 03:21:36;;;;;;;8.38;4.95;;;16.80;99.90;;;;;;5017313;28;20028;-67
2023/07/25 03:24:02;;;;;;;9.73;4.95;;;16.90;99.90;;;;;;5016914;28;20022;-66
2023/07/25 03:26:27;;;;;;;11.23;5.10;;;16.90;99.90;;;;;;5017132;28;20032;-67
2023/07/25 03:28:53;;;;;;;8.48;4.93;;;17.00;99.90;;;;;;5017177;28;20025;-67
2023/07/25 03:31:18;;;;;;;9.60;5.32;;;17.00;99.90;;;;;;5016904;28;20117;-67
2023/07/25 03:33:44;;;;;;;8.77;5.05;;;17.10;99.90;;;;;;5017235;28;20036;-66
2023/07/25 03:36:27;;;;;;;9.52;4.90;;;17.20;99.90;;;;;;5017035;28;20042;-66
2023/07/25 03:38:52;;;;;;;8.43;5.25;;;17.00;99.90;;;;;;5017494;28;20113;-67
2023/07/25 03:41:18;;;;;;;8.88;4.70;;;16.70;99.90;;;;;;5018001;28;20053;-66
2023/07/25 03:43:43;;;;;;;8.05;5.40;;;16.60;99.90;;;;;;5017013;28;20030;-67
2023/07/25 03:46:09;;;;;;;9.32;5.20;;;16.60;99.90;;;;;;5017200;28;20033;-67
2023/07/25 03:48:34;;;;;;;7.57;5.15;;;16.60;99.90;;;;;;5016740;28;20041;-66
2023/07/25 03:51:00;;;;;;;12.05;5.85;;;16.70;99.90;;;;;;5016998;28;20018;-66
2023/07/25 03:53:25;;;;;;;9.50;5.75;;;16.70;99.90;;;;;;5016992;28;20022;-66
2023/07/25 03:55:51;;;;;;;9.60;5.35;;;16.70;99.90;;;;;;5017084;28;20056;-67
2023/07/25 03:58:17;;;;;;;7.95;5.00;;;16.80;99.90;;;;;;5016889;28;20073;-67
2023/07/25 04:00:42;;;;;;;15.32;5.32;;;16.90;99.90;;;;;;5016916;28;20071;-67
2023/07/25 04:03:08;;;;;;;10.05;6.03;;;16.90;99.90;;;;;;5016463;28;20060;-66
2023/07/25 04:05:33;;;;;;;8.85;5.43;;;16.90;99.90;;;;;;5016370;28;20022;-66
2023/07/25 04:07:59;;;;;;;8.15;5.63;;;16.80;99.90;;;;;;5017198;28;20022;-66
2023/07/25 04:10:26;;;;;;;12.15;5.75;;;16.70;99.90;;;;;;5016111;28;20034;-66
2023/07/25 04:12:51;;;;;;;10.15;5.90;;;16.70;99.90;;;;;;5016441;28;20057;-67
2023/07/25 04:15:17;;;;;;;7.32;5.20;;;16.70;99.90;;;;;;5016708;28;20030;-66
2023/07/25 04:17:42;;;;;;;11.57;6.45;;;16.70;99.90;;;;;;5016469;28;20036;-66
2023/07/25 04:20:08;;;;;;;9.68;5.93;;;16.70;99.90;;;;;;5016793;28;20025;-67
2023/07/25 04:22:34;;;;;;;10.95;5.65;;;16.70;99.90;;;;;;5016667;28;20117;-66
2023/07/25 04:24:59;;;;;;;10.85;5.50;;;16.80;99.90;;;;;;5016835;28;20022;-66
2023/07/25 04:27:25;;;;;;;7.95;5.53;;;16.70;99.90;;;;;;5017913;28;20044;-67
2023/07/25 04:29:50;;;;;;;8.68;5.88;;;16.70;99.90;;;;;;5016569;28;20072;-67
2023/07/25 04:32:16;;;;;;;10.63;6.53;;;16.70;99.90;;;;;;5016900;28;20022;-67
2023/07/25 04:34:41;;;;;;;10.82;5.43;;;16.80;99.90;;;;;;5016738;28;20045;-68
2023/07/25 04:37:07;;;;;;;10.45;5.80;;;16.80;99.90;;;;;;5019182;28;20034;-68
2023/07/25 04:39:32;;;;;;;8.30;5.55;;;16.80;99.90;;;;;;5020396;28;20029;-68
2023/07/25 04:41:58;;;;;;;10.57;6.35;;;16.80;99.90;;;;;;5020254;28;20080;-68
2023/07/25 04:44:24;;;;;;;9.90;5.85;;;16.80;99.90;;;;;;5020792;28;20080;-68
2023/07/25 04:46:49;;;;;;;9.40;5.97;;;16.80;99.90;;;;;;5020412;28;20076;-68
2023/07/25 04:49:16;;;;;;;11.63;6.13;;;16.80;99.90;;;;;;5020632;28;20025;-68
2023/07/25 04:51:42;;;;;;;8.90;6.15;;;16.90;99.90;;;;;;5020357;28;20030;-68
2023/07/25 04:54:08;;;;;;;11.50;6.28;;;16.90;99.90;;;;;;5020732;28;20030;-68
2023/07/25 04:56:33;;;;;;;9.23;5.57;;;17.00;99.90;;;;;;5020471;28;20022;-68
2023/07/25 04:58:59;;;;;;;7.55;4.68;;;17.00;99.90;;;;;;5019871;28;20049;-68
2023/07/25 05:01:24;;;;;;;9.88;5.88;;;17.10;99.90;;;;;;5019875;28;20037;-68
2023/07/25 05:03:50;;;;;;;10.45;5.75;;;17.20;99.90;;;;;;5020891;28;20053;-68
2023/07/25 05:06:15;;;;;;;8.63;5.70;;;17.10;99.90;;;;;;5020486;28;20029;-69
2023/07/25 05:08:41;;;;;;;10.25;5.65;;;17.00;99.90;;;;;;5020052;28;20026;-67
2023/07/25 05:11:07;;;;;;;8.73;5.53;;;17.10;99.90;;;;;;5068674;23;20072;-68
2023/07/25 05:13:32;;;;;;;7.10;4.75;;;17.00;99.90;;;;;;5040749;28;20021;-68
2023/07/25 05:15:58;;;;;;;8.57;5.13;;;17.10;99.90;;;;;;5040018;28;20022;-68
2023/07/25 05:18:23;;;;;;;9.43;5.90;;;17.00;99.90;;;;;;5040207;28;20022;-67
2023/07/25 05:20:49;;;;;;;8.25;5.18;;;16.90;99.90;;;;;;5028627;28;20022;-68
2023/07/25 05:23:14;;;;;;;9.27;5.70;;;16.80;99.90;;;;;;5019505;28;20145;-71
2023/07/25 05:25:40;;;;;;;10.32;5.70;;;16.70;99.90;;;;;;5020525;28;20075;-72
2023/07/25 05:28:06;;;;;;;10.88;5.43;;;16.70;99.90;;;;;;5019879;28;20072;-74
2023/07/25 05:30:31;;;;;;;9.45;5.22;;;16.80;99.90;;;;;;5019420;28;20022;-73
2023/07/25 05:32:57;;;;;;;9.27;6.03;;;16.70;99.90;;;;;;5020391;28;20014;-72
2023/07/25 05:35:23;;;;;;;10.10;5.53;;;16.70;99.90;;;;;;5019565;28;20030;-72
2023/07/25 05:37:48;;;;;;;9.13;5.53;;;16.80;99.90;;;;;;5019991;28;20093;-70
2023/07/25 05:40:14;;;;;;;10.50;5.65;;;16.90;99.90;;;;;;5019190;28;20034;-69
2023/07/25 05:42:40;;;;;;;7.10;5.22;;;17.00;99.90;;;;;;5019028;28;20022;-69
2023/07/25 05:45:05;;;;;;;8.98;5.28;;;17.10;99.90;;;;;;5019269;28;20029;-69
2023/07/25 05:47:31;;;;;;;8.90;5.38;;;17.10;99.90;;;;;;5020509;28;20073;-69
2023/07/25 05:49:57;;;;;;;7.78;5.25;;;17.20;99.90;;;;;;5019217;28;20022;-69
2023/07/25 05:52:22;;;;;;;10.15;5.07;;;17.40;99.90;;;;;;5018873;28;20041;-69
2023/07/25 05:54:52;;;;;;;6.97;5.10;;;17.40;99.90;;;;;;5019005;28;20022;-70
2023/07/25 05:57:18;;;;;;;11.30;5.45;;;17.50;99.90;;;;;;5018855;28;20021;-70
2023/07/25 05:59:44;;;;;;;7.75;5.00;;;17.50;99.90;;;;;;5018684;28;20026;-69
2023/07/25 06:02:10;;;;;;;8.30;5.18;;;17.50;99.90;;;;;;5018627;28;20033;-69
2023/07/25 06:04:36;;;;;;;9.95;4.60;;;17.50;99.90;;;;;;5018627;28;20025;-70
2023/07/25 06:07:01;;;;;;;11.40;5.32;;;17.60;99.90;;;;;;5018670;28;20033;-69
2023/07/25 06:09:27;;;;;;;8.15;5.20;;;17.60;99.90;;;;;;5018945;28;20028;-70
2023/07/25 06:11:53;;;;;;;7.00;5.40;;;17.60;99.90;;;;;;5018908;28;20087;-69
2023/07/25 06:14:18;;;;;;;9.82;6.30;;;17.50;99.90;;;;;;5018873;28;20113;-69
2023/07/25 06:16:44;;;;;;;11.40;5.85;;;17.50;99.90;;;;;;5018913;28;20049;-70
2023/07/25 06:19:09;;;;;;;10.60;5.50;;;17.40;99.90;;;;;;5018672;28;20030;-70
2023/07/25 06:21:35;;;;;;;10.20;5.97;;;17.40;99.90;;;;;;5018578;28;20072;-69
2023/07/25 06:24:01;;;;;;;8.63;6.18;;;17.40;99.90;;;;;;5018172;28;20018;-69
2023/07/25 06:26:28;;;;;;;7.68;5.45;;;17.40;99.90;;;;;;5018362;28;20022;-70
2023/07/25 06:28:54;;;;;;;12.90;6.68;;;17.50;99.90;;;;;;5018214;28;20026;-69
2023/07/25 06:31:19;;;;;;;11.15;6.13;;;17.50;99.90;;;;;;5019042;28;20029;-69
2023/07/25 06:33:45;;;;;;;11.88;7.18;;;17.40;99.90;;;;;;5019208;28;20101;-69
2023/07/25 06:36:10;;;;;;;11.15;7.00;;;17.40;99.90;;;;;;5017960;28;20025;-69
2023/07/25 06:38:36;;;;;;;12.80;6.80;;;17.50;99.90;;;;;;5019001;28;20066;-69
2023/07/25 06:41:01;;;;;;;10.68;6.93;;;17.40;99.90;;;;;;5017921;28;20061;-70
2023/07/25 06:43:27;;;;;;;10.23;6.40;;;17.50;99.90;;;;;;5019123;28;20037;-70
2023/07/25 06:45:53;;;;;;;9.80;6.65;;;17.60;99.90;;;;;;5018663;28;20041;-70
2023/07/25 06:48:19;;;;;;;8.93;6.22;;;17.70;99.90;;;;;;5018948;28;20029;-70
2023/07/25 06:50:46;;;;;;;11.73;6.88;;;17.80;99.90;;;;;;5018288;28;20022;-68
2023/07/25 06:53:11;;;;;;;11.20;7.63;;;17.70;99.90;;;;;;5018838;28;20021;-67
2023/07/25 06:55:38;;;;;;;10.65;6.35;;;17.70;99.90;;;;;;5017978;28;20032;-67
2023/07/25 06:58:03;;;;;;;10.98;6.78;;;17.60;99.90;;;;;;5018014;28;20088;-67
2023/07/25 07:00:29;;;;;;;15.40;7.47;;;17.60;99.90;;;;;;5017253;28;20026;-67
2023/07/25 07:02:54;;;;;;;9.55;6.70;;;17.60;99.90;;;;;;5018532;28;20095;-68
2023/07/25 07:05:20;;;;;;;15.35;8.75;;;17.70;99.90;;;;;;5018900;28;20033;-68
2023/07/25 07:07:46;;;;;;;14.95;8.18;;;17.70;99.90;;;;;;5017566;28;20018;-67
2023/07/25 07:10:11;;;;;;;13.70;8.35;;;17.70;99.90;;;;;;5017572;28;20033;-69
2023/07/25 07:12:42;;;;;;;15.13;9.23;;;17.70;99.90;;;;;;5017375;28;20057;-68
2023/07/25 07:15:08;;;;;;;15.87;8.83;;;17.70;99.90;;;;;;5017411;28;20037;-69
2023/07/25 07:17:33;;;;;;;15.98;8.48;;;17.60;99.90;;;;;;5017405;28;20269;-69
2023/07/25 07:20:00;;;;;;;15.82;9.05;;;17.50;99.90;;;;;;5018177;28;20026;-69
2023/07/25 07:22:26;;;;;;;16.90;9.90;;;17.50;99.90;;;;;;5017172;28;20025;-69
2023/07/25 07:24:51;;;;;;;23.25;9.68;;;17.50;99.90;;;;;;5017105;28;20022;-68
2023/07/25 07:27:19;;;;;;;14.90;9.57;;;17.50;99.90;;;;;;5017106;28;20037;-69
2023/07/25 07:29:45;;;;;;;22.13;10.75;;;17.40;99.90;;;;;;5017259;28;20022;-69
2023/07/25 07:32:10;;;;;;;15.30;9.15;;;17.40;99.90;;;;;;5017182;28;20022;-67
2023/07/25 07:34:36;;;;;;;15.07;10.27;;;17.40;99.90;;;;;;5017077;28;20022;-67
2023/07/25 07:37:02;;;;;;;22.70;10.55;;;17.40;99.90;;;;;;5017030;28;20041;-68
2023/07/25 07:39:27;;;;;;;17.90;9.95;;;17.40;99.90;;;;;;5017699;28;20037;-67
2023/07/25 07:41:53;;;;;;;19.33;11.15;;;17.40;99.90;;;;;;5017091;28;20120;-67
2023/07/25 07:44:18;;;;;;;15.15;9.10;;;17.30;99.90;;;;;;5016925;28;20033;-67
2023/07/25 07:46:44;;;;;;;14.07;8.88;;;17.30;99.90;;;;;;5017987;28;20025;-66
2023/07/25 07:49:09;;;;;;;18.90;8.75;;;17.30;99.90;;;;;;5017707;28;20072;-66
2023/07/25 07:51:35;;;;;;;18.35;8.90;;;17.20;99.90;;;;;;5017496;28;20018;-66
2023/07/25 07:54:00;;;;;;;16.52;9.00;;;17.00;99.90;;;;;;5016675;28;20022;-69
2023/07/25 07:56:26;;;;;;;13.63;7.85;;;17.00;99.90;;;;;;5017638;28;20029;-69
2023/07/25 07:58:51;;;;;;;12.00;6.78;;;17.00;99.90;;;;;;5016675;28;20026;-69
2023/07/25 08:01:21;;;;;;;11.55;7.32;;;17.00;99.90;;;;;;5016659;28;20022;-69
2023/07/25 08:03:47;;;;;;;12.82;7.88;;;17.00;99.90;;;;;;5016698;28;20025;-69
2023/07/25 08:06:13;;;;;;;16.70;7.95;;;17.00;99.90;;;;;;5016471;28;20021;-69
2023/07/25 08:08:39;;;;;;;12.40;7.30;;;16.90;99.90;;;;;;5016483;28;20081;-69
2023/07/25 08:11:05;;;;;;;13.23;7.30;;;16.90;99.90;;;;;;5016252;28;20071;-70
2023/07/25 08:13:30;;;;;;;11.70;7.35;;;16.80;99.90;;;;;;5016417;28;20021;-70
2023/07/25 08:15:56;;;;;;;18.27;8.30;;;16.80;99.90;;;;;;5016355;28;20149;-70
2023/07/25 08:18:21;;;;;;;14.05;8.38;;;16.80;99.90;;;;;;5016286;28;20026;-70
2023/07/25 08:20:47;;;;;;;12.75;7.28;;;16.80;99.90;;;;;;5016419;28;20029;-70
2023/07/25 08:23:13;;;;;;;12.02;7.35;;;16.70;99.90;;;;;;5016269;28;20052;-70
2023/07/25 08:25:39;;;;;;;17.00;8.48;;;16.60;99.90;;;;;;5016203;28;20093;-70
2023/07/25 08:28:05;;;;;;;14.23;8.05;;;16.60;99.90;;;;;;5016217;28;20018;-70
2023/07/25 08:30:31;;;;;;;11.52;7.07;;;16.60;99.90;;;;;;5017064;28;20026;-70
2023/07/25 08:32:57;;;;;;;11.80;7.82;;;16.60;99.90;;;;;;5017139;28;20025;-70
2023/07/25 08:35:22;;;;;;;15.00;7.95;;;16.60;99.90;;;;;;5017140;28;20026;-70
2023/07/25 08:37:48;;;;;;;13.20;7.13;;;16.60;99.90;;;;;;5016205;28;20025;-70
2023/07/25 08:40:14;;;;;;;13.45;7.53;;;16.60;99.90;;;;;;5016049;28;20038;-70
2023/07/25 08:42:45;;;;;;;15.02;7.53;;;16.60;99.90;;;;;;5016114;28;20037;-70
2023/07/25 08:45:11;;;;;;;13.32;7.93;;;16.60;99.90;;;;;;5016053;28;20083;-70
2023/07/25 08:47:41;;;;;;;16.85;8.15;;;16.50;99.90;;;;;;5017053;28;20038;-70
2023/07/25 08:50:15;;;;;;;15.50;8.63;;;16.50;99.90;;;;;;5016255;28;20026;-70
2023/07/25 08:52:48;;;;;;;17.02;9.25;;;16.50;99.90;;;;;;5016126;28;20022;-70
2023/07/25 08:55:13;;;;;;;15.18;8.23;;;16.50;99.90;;;;;;5016900;28;20057;-70
2023/07/25 08:57:39;;;;;;;16.33;8.80;;;16.60;99.90;;;;;;5016364;28;20025;-70
2023/07/25 09:00:07;;;;;;;15.00;7.70;;;16.50;99.90;;;;;;5015906;28;20050;-70
2023/07/25 09:02:34;;;;;;;16.38;7.25;;;16.50;99.90;;;;;;5015972;28;20040;-70
2023/07/25 09:05:00;;;;;;;14.43;8.13;;;16.50;99.90;;;;;;5015821;28;20053;-70
2023/07/25 09:07:26;;;;;;;15.55;7.90;;;16.50;99.90;;;;;;5016704;28;20030;-70
2023/07/25 09:09:51;;;;;;;13.25;8.63;;;16.50;99.90;;;;;;5015940;28;20041;-70
2023/07/25 09:12:18;;;;;;;13.60;6.93;;;16.50;99.90;;;;;;5017340;28;20046;-70
2023/07/25 09:14:43;;;;;;;16.88;8.18;;;16.50;99.90;;;;;;5016716;28;20045;-70
2023/07/25 09:17:09;;;;;;;10.00;7.00;;;16.50;99.90;;;;;;5016738;28;20061;-70
2023/07/25 09:19:35;;;;;;;14.00;7.63;;;16.50;99.90;;;;;;5016554;28;20022;-70
2023/07/25 09:22:00;;;;;;;8.77;6.30;;;16.50;99.90;;;;;;5017007;28;20109;-70
2023/07/25 09:24:39;;;;;;;9.25;5.80;;;16.40;99.90;;;;;;5020415;28;20052;-69
2023/07/25 09:27:17;;;;;;;10.27;6.57;;;16.40;99.90;;;;;;5019226;28;20076;-69
2023/07/25 09:29:43;;;;;;;10.90;6.20;;;16.40;99.90;;;;;;5019372;28;20072;-70
2023/07/25 09:32:38;;;;;;;16.75;7.07;;;16.40;99.90;;;;;;5020195;28;20026;-70
2023/07/25 09:35:06;;;;;;;11.27;5.47;;;16.40;99.90;;;;;;4963530;28;20171;-70
2023/07/25 09:37:32;;;;;;;10.77;5.88;;;16.30;99.90;;;;;;4963309;28;20027;-69
2023/07/25 09:39:58;;;;;;;10.45;5.47;;;16.30;99.90;;;;;;4963247;28;20034;-70
2023/07/25 09:42:25;;;;;;;13.73;6.30;;;16.30;99.90;;;;;;4963175;28;20030;-70
2023/07/25 09:44:51;;;;;;;9.50;4.68;;;16.20;99.90;;;;;;4979424;28;20039;-69
2023/07/25 09:47:22;;;;;;;10.32;4.95;;;16.00;99.90;;;;;;4963159;28;20034;-70
2023/07/25 09:49:49;;;;;;;9.27;4.70;;;16.20;99.90;;;;;;4963251;28;20109;-70
2023/07/25 09:52:15;;;;;;;8.15;3.50;;;16.20;99.90;;;;;;4979242;28;20041;-70
2023/07/25 09:54:41;;;;;;;5.38;4.00;;;15.90;99.90;;;;;;4963038;28;20038;-70
2023/07/25 09:57:07;;;;;;;8.25;4.28;;;16.00;99.90;;;;;;4979502;28;20030;-70
2023/07/25 09:59:34;;;;;;;6.97;3.70;;;16.00;99.90;;;;;;4979161;28;20041;-70
2023/07/25 10:02:00;;;;;;;7.57;4.32;;;16.00;99.90;;;;;;4962981;28;20026;-70
2023/07/25 10:04:26;;;;;;;8.07;4.68;;;16.10;99.90;;;;;;4962627;28;20041;-70
2023/07/25 10:06:53;;;;;;;9.95;4.35;;;16.10;99.90;;;;;;4962970;28;20050;-70
2023/07/25 10:09:19;;;;;;;8.57;3.63;;;16.00;99.90;;;;;;4962674;28;20027;-69
2023/07/25 10:11:47;;;;;;;10.13;4.97;;;15.90;99.90;;;;;;4997079;28;20053;-70
2023/07/25 10:14:13;;;;;;;10.13;5.03;;;16.00;99.90;;;;;;5018541;28;20080;-70
2023/07/25 10:16:40;;;;;;;10.35;5.10;;;16.10;99.90;;;;;;5018369;28;20032;-70
2023/07/25 10:19:06;;;;;;;9.38;5.35;;;16.10;99.90;;;;;;5018409;28;20049;-70
2023/07/25 10:21:52;;;;;;;12.25;4.78;;;16.10;99.90;;;;;;5019482;28;20034;-70
2023/07/25 10:24:20;;;;;;;5.78;3.95;;;16.20;99.90;;;;;;5018595;28;20044;-70
2023/07/25 10:26:56;;;;;;;9.82;4.75;;;16.20;99.90;;;;;;5018684;28;20049;-70
2023/07/25 10:29:46;;;;;;;6.55;4.60;;;16.20;99.90;;;;;;5018225;28;20022;-70
2023/07/25 10:32:16;;;;;;;5.57;3.13;;;16.40;99.90;;;;;;5018204;28;20026;-70
2023/07/25 10:34:49;;;;;;;6.47;3.38;;;16.40;99.90;;;;;;5017181;28;20033;-70
2023/07/25 10:37:19;;;;;;;6.35;3.03;;;16.30;99.90;;;;;;5018149;28;20026;-71
2023/07/25 10:39:44;;;;;;;8.38;4.13;;;16.20;99.90;;;;;;5019033;28;20026;-70
2023/07/25 10:42:17;;;;;;;8.65;4.10;;;16.40;99.90;;;;;;5018824;28;20026;-70
2023/07/25 10:44:43;;;;;;;6.82;3.78;;;16.40;99.90;;;;;;5018505;28;20098;-70
2023/07/25 10:47:43;;;;;;;15.82;6.90;;;16.50;99.90;;;;;;5018125;28;20053;-71
2023/07/25 10:50:09;;;;;;;9.50;5.35;;;16.70;99.90;;;;;;5018321;28;20045;-70
2023/07/25 10:52:44;;;;;;;8.25;4.88;;;16.70;99.90;;;;;;5018651;28;20029;-70
2023/07/25 10:55:14;;;;;;;6.35;4.38;;;16.70;99.90;;;;;;5018571;28;20030;-70
2023/07/25 10:57:40;;;;;;;8.85;4.53;;;16.80;99.90;;;;;;5017845;28;20064;-70
2023/07/25 11:00:10;;;;;;;6.20;2.90;;;16.90;99.90;;;;;;5017817;28;20022;-70
2023/07/25 11:02:43;;;;;;;5.85;3.08;;;16.60;99.90;;;;;;5017645;28;20057;-70
2023/07/25 11:05:12;;;;;;;6.68;3.40;;;16.60;99.90;;;;;;5018316;28;20026;-70
2023/07/25 11:07:47;;;;;;;6.47;2.80;;;16.60;99.90;;;;;;5017560;28;20044;-70
2023/07/25 11:10:26;;;;;;;4.38;2.63;;;16.80;99.90;;;;;;5039610;23;20005;-69
2023/07/25 11:12:58;;;;;;;5.90;2.60;;;16.70;99.90;;;;;;4998810;28;20026;-69
2023/07/25 11:15:23;;;;;;;;;;;16.70;99.90;;;;;;4998203;28;20041;-69
2023/07/25 11:17:49;;;;;;;3.83;2.13;;;16.70;99.90;;;;;;4997730;28;19906;-69
2023/07/25 11:20:21;;;;;;;4.50;2.30;;;16.90;99.90;;;;;;4997630;28;20029;-69
2023/07/25 11:22:51;;;;;;;4.93;2.13;;;17.00;99.90;;;;;;4998325;28;20022;-69
2023/07/25 11:25:18;;;;;;;7.65;3.15;;;17.00;99.90;;;;;;4997601;28;20034;-69
2023/07/25 11:27:47;;;;;;;8.27;2.58;;;17.40;99.90;;;;;;4998187;28;20048;-69
2023/07/25 11:30:16;;;;;;;6.00;3.00;;;17.70;99.90;;;;;;4998093;28;20132;-69
2023/07/25 11:32:51;;;;;;;4.40;2.78;;;18.10;99.90;;;;;;4998240;28;20014;-70
2023/07/25 11:35:17;;;;;;;3.15;2.20;;;18.50;99.90;;;;;;4997632;28;20113;-70
2023/07/25 11:37:44;;;;;;;4.32;2.05;;;18.60;99.90;;;;;;4998545;28;20054;-70
2023/07/25 11:40:20;;;;;;;5.80;2.58;;;18.70;99.90;;;;;;4997562;28;20026;-70
2023/07/25 11:42:48;;;;;;;5.65;2.40;;;19.10;99.90;;;;;;4997616;28;20150;-71
2023/07/25 11:45:15;;;;;;;2.90;2.05;;;19.40;99.90;;;;;;4998077;28;20018;-70
2023/07/25 11:47:44;;;;;;;11.35;2.70;;;19.70;99.90;;;;;;4997744;28;20031;-69
2023/07/25 11:50:11;;;;;;;4.15;2.60;;;19.70;99.90;;;;;;4997388;28;20027;-69
2023/07/25 11:52:39;;;;;;;2.80;2.17;;;19.90;99.90;;;;;;4997246;28;20025;-69
2023/07/25 11:55:07;;;;;;;4.97;2.28;;;20.00;99.90;;;;;;4997107;28;20044;-69
2023/07/25 11:57:33;;;;;;;4.75;2.10;;;20.20;99.90;;;;;;4997083;28;20034;-69
2023/07/25 11:59:59;;;;;;;3.33;2.08;;;20.60;99.90;;;;;;4997805;28;20058;-69
2023/07/25 12:02:24;;;;;;;3.53;2.00;;;20.80;99.90;;;;;;4997891;28;20030;-69
2023/07/25 12:04:50;;;;;;;4.07;2.00;;;20.90;99.90;;;;;;4997564;28;20026;-69
2023/07/25 12:07:16;;;;;;;2.25;1.50;;;21.30;99.90;;;;;;4997283;28;20052;-69
2023/07/25 12:09:52;;;;;;;8.68;2.38;;;21.70;99.90;;;;;;4997696;28;20018;-69
2023/07/25 12:12:18;;;;;;;5.82;2.42;;;22.10;99.90;;;;;;4996987;28;20035;-69
2023/07/25 12:14:57;;;;;;;6.97;2.33;;;22.20;99.90;;;;;;4997566;28;20101;-69
2023/07/25 12:17:23;;;;;;;3.05;2.22;;;22.10;99.90;;;;;;4996737;28;20030;-69
2023/07/25 12:19:53;;;;;;;5.80;2.10;;;21.70;99.90;;;;;;4996471;28;20121;-69
2023/07/25 12:22:20;;;;;;;3.85;2.10;;;21.60;99.90;;;;;;4996559;28;20161;-69
2023/07/25 12:24:46;;;;;;;2.53;1.80;;;21.40;99.90;;;;;;4997824;28;20030;-69
2023/07/25 12:27:18;;;;;;;5.18;1.58;;;21.30;99.90;;;;;;4996767;28;20029;-69
2023/07/25 12:29:44;;;;;;;8.65;2.67;;;21.20;99.90;;;;;;4997277;28;20048;-69
2023/07/25 12:32:12;;;;;;;5.13;1.67;;;21.20;99.90;;;;;;4996495;28;20053;-69
2023/07/25 12:34:37;;;;;;;5.65;2.30;;;21.00;99.90;;;;;;4996980;28;20023;-69
2023/07/25 12:37:03;;;;;;;5.93;2.30;;;21.00;99.90;;;;;;4996507;28;20054;-69
2023/07/25 12:39:29;;;;;;;7.75;1.92;;;21.20;99.90;;;;;;4996403;28;20026;-69
2023/07/25 12:41:55;;;;;;;3.60;2.25;;;21.80;99.90;;;;;;4996494;28;20034;-69